Česky Dansk Deutsch English Español Suomi Français Magyar Italiano Nederlands norsk Polski Português svenska Türkçe

 

Het Weer

Maastricht Airport Zuid Limburg (Nederland)

12:55, 23 augusti 2016 (GMT)

NWNNE
WE
SWSSE
Home            
Maastricht Airport Zuid Limburg Geilenkirchen Genk Aachen / Merzbruck Kleine Brogel Bierset Brueggen Sint-Truiden Spa / La Sauveniere Schaffen Elsenborn Goetsenhoven Monchengladbach Noervenich Eindhoven Beauvechain Weelde Military Laarbruch Niederrhein Duesseldorf Volkel Bruxelles National Melsbroek Bel-Afb

Om een weerknop op uw website of weblog te plaatsen, copieer onderstaande code en plak die in uw pagina. In het eerste vakje staat HTML-code, in het tweede vakje UBB-code.


Add to Google

Details

Wind speed:1 bf, 3 kn, 1.5 m/s, 3.5 miles/h, 5.6 km/h
Wind direction:SSE, 160° - W, 270°
Generella sikten:Över 10000 m, 10 km, 32800 ft, 6.2 miles
Temperaturen:27°C, 81°F
Gefühlte Temperatur:27°C, 81°F
Daggpunkt:15°C, 59°F
Lufttrycket:1025 hPa, 768.8 mmHg, 30.27 inHg, 1.012 atm
Relativa fuktigheten:47.8 %
METAR:EHBK 231255Z AUTO 21003KT 160V270 9999 NCD 27/15 Q1025 NOSIG

Snelkoppelingen

Actuele weersinformatie van de hele wereld. Voeg locaties toe met het plus (+) symbool. Deze snelkoppelingen kunnen worden toegevoegd aan Google.

Lid van de Technetium groep

website free tracking
StatCounter NetStat W3C Validator

07-12-2021 06:50:51
astro.technetium.be money.technetium.be phote.technetium.be tafeltennistafel.technetium.be www.ligfiets.net